This is the latest recevied weather packets stored in our database for station/object YC0TBU-4. If no packets are shown the sender has not sent any weather packets the latest 10 day(s).
| Time | Temp. | Humidity | Pressure | Rain* | Wind** | Luminosity | Snow |
|---|---|---|---|---|---|---|---|
| 1777416888 | 32.22° C | 37% | 1009.8 hPa | - | - | - | - |
| 1777415953 | 31.67° C | 38% | 1009 hPa | - | - | - | - |
| 1777415018 | 31.67° C | 37% | 1008.6 hPa | - | - | - | - |
| 1777414083 | 32.22° C | 38% | 1008.6 hPa | - | - | - | - |
| 1777413132 | 31.67° C | 38% | 1008.7 hPa | - | - | - | - |
| 1777412197 | 31.67° C | 38% | 1008.8 hPa | - | - | - | - |
| 1777411246 | 31.67° C | 37% | 1009 hPa | - | - | - | - |
| 1777410311 | 31.67° C | 37% | 1009 hPa | - | - | - | - |
| 1777409376 | 31.67° C | 37% | 1009.1 hPa | - | - | - | - |
| 1777408441 | 31.67° C | 37% | 1009.1 hPa | - | - | - | - |
| 1777407506 | 32.22° C | 38% | 1009 hPa | - | - | - | - |
| 1777406555 | 32.22° C | 37% | 1009.1 hPa | - | - | - | - |
| 1777405620 | 32.22° C | 37% | 1009 hPa | - | - | - | - |
| 1777404685 | 32.22° C | 37% | 1009.3 hPa | - | - | - | - |
| 1777403750 | 32.22° C | 37% | 1009.8 hPa | - | - | - | - |
| 1777402815 | 32.22° C | 37% | 1009.7 hPa | - | - | - | - |
| 1777401880 | 32.22° C | 37% | 1010.1 hPa | - | - | - | - |
| 1777400945 | 31.67° C | 37% | 1010.4 hPa | - | - | - | - |
| 1777400010 | 28.89° C | 43% | 1010.4 hPa | - | - | - | - |
| 1777399075 | 27.78° C | 46% | 1010.4 hPa | - | - | - | - |
| 1777398140 | 29.44° C | 43% | 1010.5 hPa | - | - | - | - |
| 1777397205 | 30.56° C | 41% | 1010.2 hPa | - | - | - | - |
| 1777396254 | 28.33° C | 45% | 1010.9 hPa | - | - | - | - |
| 1777395319 | 30° C | 42% | 1011 hPa | - | - | - | - |
| 1777394384 | 31.11° C | 40% | 1010.9 hPa | - | - | - | - |
* Rain since midnight (hover to see other rain measurements)
** Current wind speed in m/s (hover to see current wind gust speed)